Nearby METAR Reports

 

EGPF - Glasgow Airport, United Kingdom
Distance from station: NW 19km
Updated: 21/10/2017 07:20
Thunderstorm
Thunderstorm
 Wind from ENE
Wind: ENE 19 km/h
Temperature: 11°C
Dew Point: 9°C
Humidity: 88%
Barometer: 989 hPa
Clouds: Thunderstorm
Visibility: 10 km
Cloud details: Partly cloudy 1067 m
2017/10/21 06:20 EGPF 210620Z AUTO 07010KT 030V100 9999 SCT035/// //////TCU 11/09 Q0989
EGPK - Prestwick(Civ/Na, United Kingdom
Distance from station: SW 34km
Updated: 21/10/2017 07:20
Partly cloudy
Partly cloudy
 Wind from ESE
Wind: ESE 11 km/h
Temperature: 12°C
Dew Point: 9°C
Humidity: 82%
Barometer: 988 hPa
Clouds: Partly cloudy
Visibility: 10 km
Cloud details: Partly cloudy 914 m
2017/10/21 06:20 EGPK 210620Z 12006KT 9999 SCT030 12/09 Q0988
EGPH - Edinburgh Airpor, United Kingdom
Distance from station: ENE 59km
Updated: 21/10/2017 07:20
Partly cloudy
Partly cloudy
 Wind from ESE
Wind: ESE 13 km/h
Temperature: 12°C
Dew Point: 9°C
Humidity: 82%
Barometer: 991 hPa
Clouds: Partly cloudy
Visibility: 10 km
Cloud details: Partly cloudy 1006 m
2017/10/21 06:20 EGPH 210620Z 12007KT 9999 SCT033 12/09 Q0991